Time,TemperatureF,DewpointF,PressureIn,WindDirection,WindDirectionDegrees,WindSpeedMPH,WindSpeedGustMPH,Humidity,HourlyPrecipIn,Conditions,Clouds,dailyrainin,SoftwareType,DateUTC
2013-02-18 00:04:00,26.7,23.0,30.31,SW,229,0.0,0.0,87,0.00,,,0.00,weatherlink.com 1.10,2013-02-18 05:04:00,
2013-02-18 00:19:00,26.2,23.0,30.31,SW,229,0.0,0.0,88,0.00,,,0.00,weatherlink.com 1.10,2013-02-18 05:19:00,
2013-02-18 00:34:00,26.7,23.0,30.32,SW,229,0.0,0.0,87,0.00,,,0.00,weatherlink.com 1.10,2013-02-18 05:34:00,
2013-02-18 00:49:00,26.7,24.0,30.32,SW,229,0.0,0.0,89,0.00,,,0.00,weatherlink.com 1.10,2013-02-18 05:49:00,
2013-02-18 01:04:00,26.8,24.0,30.32,SW,230,0.0,0.0,89,0.00,,,0.00,weatherlink.com 1.10,2013-02-18 06:04:00,
2013-02-18 01:19:00,26.9,24.0,30.32,SW,230,0.0,0.0,90,0.00,,,0.00,weatherlink.com 1.10,2013-02-18 06:19:00,
2013-02-18 01:34:00,27.1,25.0,30.33,North,352,2.0,2.0,91,0.00,,,0.00,weatherlink.com 1.10,2013-02-18 06:34:00,
2013-02-18 01:49:00,27.5,25.0,30.33,SW,225,0.0,1.0,91,0.00,,,0.00,weatherlink.com 1.10,2013-02-18 06:49:00,
2013-02-18 02:04:00,27.8,26.0,30.34,SW,224,0.0,0.0,91,0.00,,,0.00,weatherlink.com 1.10,2013-02-18 07:04:00,
2013-02-18 02:19:00,27.8,26.0,30.34,SW,223,0.0,1.0,91,0.00,,,0.00,weatherlink.com 1.10,2013-02-18 07:19:00,
2013-02-18 02:49:00,27.2,25.0,30.34,SW,224,0.0,0.0,90,0.00,,,0.00,weatherlink.com 1.10,2013-02-18 07:49:00,
2013-02-18 03:04:00,27.5,25.0,30.34,SW,224,0.0,0.0,91,0.00,,,0.00,weatherlink.com 1.10,2013-02-18 08:04:00,
2013-02-18 03:19:00,27.3,25.0,30.35,SW,224,0.0,1.0,91,0.00,,,0.00,weatherlink.com 1.10,2013-02-18 08:19:00,
2013-02-18 03:34:00,27.1,25.0,30.35,WNW,284,1.0,1.0,91,0.00,,,0.00,weatherlink.com 1.10,2013-02-18 08:34:00,
2013-02-18 03:49:00,27.0,25.0,30.35,WNW,284,0.0,0.0,91,0.00,,,0.00,weatherlink.com 1.10,2013-02-18 08:49:00,
2013-02-18 04:04:00,26.2,24.0,30.34,WNW,285,0.0,0.0,91,0.00,,,0.00,weatherlink.com 1.10,2013-02-18 09:04:00,
2013-02-18 04:19:00,25.9,24.0,30.35,WNW,285,0.0,0.0,93,0.00,,,0.00,weatherlink.com 1.10,2013-02-18 09:19:00,
2013-02-18 04:34:00,26.5,25.0,30.36,WNW,284,0.0,0.0,93,0.00,,,0.00,weatherlink.com 1.10,2013-02-18 09:34:00,
2013-02-18 04:49:00,26.5,25.0,30.36,WNW,284,0.0,0.0,92,0.00,,,0.00,weatherlink.com 1.10,2013-02-18 09:49:00,
2013-02-18 05:04:00,26.1,24.0,30.36,WNW,283,0.0,0.0,92,0.00,,,0.00,weatherlink.com 1.10,2013-02-18 10:04:00,
2013-02-18 05:19:00,25.3,24.0,30.37,WNW,284,0.0,0.0,93,0.00,,,0.00,weatherlink.com 1.10,2013-02-18 10:19:00,
2013-02-18 05:34:00,24.8,23.0,30.37,WNW,284,0.0,0.0,93,0.00,,,0.00,weatherlink.com 1.10,2013-02-18 10:34:00,
2013-02-18 05:49:00,25.2,24.0,30.37,WNW,284,0.0,0.0,94,0.00,,,0.00,weatherlink.com 1.10,2013-02-18 10:49:00,
2013-02-18 06:04:00,24.9,24.0,30.38,WNW,283,0.0,0.0,94,0.00,,,0.00,weatherlink.com 1.10,2013-02-18 11:04:00,
2013-02-18 06:19:00,25.0,24.0,30.38,WNW,284,0.0,0.0,94,0.00,,,0.00,weatherlink.com 1.10,2013-02-18 11:19:00,
2013-02-18 06:34:00,24.9,24.0,30.39,WNW,284,0.0,0.0,95,0.00,,,0.00,weatherlink.com 1.10,2013-02-18 11:34:00,
2013-02-18 06:49:00,25.0,24.0,30.40,WNW,284,0.0,0.0,95,0.00,,,0.00,weatherlink.com 1.10,2013-02-18 11:49:00,
2013-02-18 07:04:00,24.3,23.0,30.40,WNW,284,0.0,0.0,94,0.00,,,0.00,weatherlink.com 1.10,2013-02-18 12:04:00,
2013-02-18 07:19:00,24.4,23.0,30.40,WNW,284,0.0,0.0,95,0.00,,,0.00,weatherlink.com 1.10,2013-02-18 12:19:00,
2013-02-18 07:34:00,24.7,24.0,30.41,WNW,284,0.0,0.0,95,0.00,,,0.00,weatherlink.com 1.10,2013-02-18 12:34:00,
2013-02-18 07:49:00,26.5,25.0,30.41,WNW,283,0.0,0.0,95,0.00,,,0.00,weatherlink.com 1.10,2013-02-18 12:49:00,
2013-02-18 08:05:00,28.9,28.0,30.42,North,357,1.0,1.0,95,0.00,,,0.00,weatherlink.com 1.10,2013-02-18 13:05:00,
2013-02-18 08:35:00,33.9,29.0,30.43,NNE,30,3.0,5.0,83,0.00,,,0.00,weatherlink.com 1.10,2013-02-18 13:35:00,
2013-02-18 08:50:00,35.4,29.0,30.43,East,97,1.0,3.0,78,0.00,,,0.00,weatherlink.com 1.10,2013-02-18 13:50:00,
2013-02-18 09:05:00,36.8,29.0,30.44,NE,45,3.0,4.0,74,0.00,,,0.00,weatherlink.com 1.10,2013-02-18 14:05:00,
2013-02-18 09:20:00,38.0,30.0,30.44,NNW,336,2.0,3.0,72,0.00,,,0.00,weatherlink.com 1.10,2013-02-18 14:20:00,
2013-02-18 09:35:00,38.9,28.0,30.45,East,86,1.0,5.0,66,0.00,,,0.00,weatherlink.com 1.10,2013-02-18 14:35:00,
2013-02-18 09:50:00,40.8,29.0,30.45,North,357,0.0,2.0,64,0.00,,,0.00,weatherlink.com 1.10,2013-02-18 14:50:00,
2013-02-18 10:05:00,42.9,28.0,30.45,North,7,3.0,3.0,57,0.00,,,0.00,weatherlink.com 1.10,2013-02-18 15:05:00,
2013-02-18 10:20:00,43.7,28.0,30.45,East,87,3.0,5.0,54,0.01,,,0.01,weatherlink.com 1.10,2013-02-18 15:20:00,
2013-02-18 10:35:00,44.9,25.0,30.45,East,94,2.0,6.0,45,0.01,,,0.01,weatherlink.com 1.10,2013-02-18 15:35:00,
2013-02-18 10:50:00,46.3,26.0,30.45,SSE,151,1.0,5.0,45,0.01,,,0.01,weatherlink.com 1.10,2013-02-18 15:50:00,
2013-02-18 11:05:00,46.7,23.0,30.45,SE,138,1.0,5.0,40,0.01,,,0.01,weatherlink.com 1.10,2013-02-18 16:05:00,
2013-02-18 11:20:00,47.5,24.0,30.45,SE,146,3.0,8.0,40,0.00,,,0.01,weatherlink.com 1.10,2013-02-18 16:20:00,
2013-02-18 15:19:00,50.8,28.0,30.39,South,189,2.0,7.0,41,0.00,,,0.01,weatherlink.com 1.10,2013-02-18 20:19:00,
2013-02-18 15:35:00,50.8,25.0,30.38,SSE,160,2.0,6.0,36,0.00,,,0.01,weatherlink.com 1.10,2013-02-18 20:35:00,
2013-02-18 15:50:00,50.8,25.0,30.38,South,175,2.0,7.0,37,0.00,,,0.01,weatherlink.com 1.10,2013-02-18 20:50:00,
2013-02-18 16:05:00,51.2,26.0,30.38,SE,143,2.0,5.0,37,0.00,,,0.01,weatherlink.com 1.10,2013-02-18 21:05:00,
2013-02-18 16:20:00,50.2,26.0,30.38,SW,215,1.0,5.0,39,0.00,,,0.01,weatherlink.com 1.10,2013-02-18 21:20:00,
2013-02-18 16:35:00,49.6,28.0,30.38,SSW,199,4.0,6.0,44,0.00,,,0.01,weatherlink.com 1.10,2013-02-18 21:35:00,
2013-02-18 16:50:00,48.8,28.0,30.38,South,171,2.0,6.0,44,0.00,,,0.01,weatherlink.com 1.10,2013-02-18 21:50:00,
2013-02-18 17:05:00,48.4,28.0,30.38,WSW,247,0.0,5.0,45,0.00,,,0.01,weatherlink.com 1.10,2013-02-18 22:05:00,
2013-02-18 17:20:00,47.9,29.0,30.37,SSE,156,4.0,6.0,49,0.00,,,0.01,weatherlink.com 1.10,2013-02-18 22:20:00,
2013-02-18 17:35:00,47.5,30.0,30.37,SE,143,3.0,5.0,51,0.00,,,0.01,weatherlink.com 1.10,2013-02-18 22:35:00,
2013-02-18 17:50:00,46.8,31.0,30.37,SSE,155,0.0,4.0,54,0.00,,,0.01,weatherlink.com 1.10,2013-02-18 22:50:00,
2013-02-18 18:05:00,45.5,31.0,30.38,SSE,154,0.0,0.0,58,0.00,,,0.01,weatherlink.com 1.10,2013-02-18 23:05:00,
2013-02-18 18:20:00,43.8,32.0,30.38,SSE,154,0.0,0.0,63,0.00,,,0.01,weatherlink.com 1.10,2013-02-18 23:20:00,
2013-02-18 18:35:00,42.0,31.0,30.38,SSE,155,0.0,0.0,66,0.00,,,0.01,weatherlink.com 1.10,2013-02-18 23:35:00,
2013-02-18 18:50:00,40.6,32.0,30.37,SSE,154,0.0,0.0,70,0.00,,,0.01,weatherlink.com 1.10,2013-02-18 23:50:00,
2013-02-18 19:05:00,40.7,33.0,30.37,SSE,154,0.0,0.0,75,0.00,,,0.01,weatherlink.com 1.10,2013-02-19 00:05:00,
2013-02-18 19:20:00,39.8,33.0,30.37,SSE,155,0.0,0.0,76,0.00,,,0.01,weatherlink.com 1.10,2013-02-19 00:20:00,
2013-02-18 19:35:00,39.1,32.0,30.37,SSE,154,0.0,0.0,77,0.00,,,0.01,weatherlink.com 1.10,2013-02-19 00:35:00,
2013-02-18 19:50:00,38.3,32.0,30.37,SSE,154,0.0,0.0,79,0.00,,,0.01,weatherlink.com 1.10,2013-02-19 00:50:00,
2013-02-18 20:05:00,37.4,32.0,30.37,SSE,154,0.0,0.0,81,0.00,,,0.01,weatherlink.com 1.10,2013-02-19 01:05:00,
2013-02-18 20:20:00,37.4,33.0,30.36,SSE,154,0.0,0.0,83,0.00,,,0.01,weatherlink.com 1.10,2013-02-19 01:20:00,
2013-02-18 20:35:00,37.0,33.0,30.36,SSE,154,0.0,0.0,84,0.00,,,0.01,weatherlink.com 1.10,2013-02-19 01:35:00,
2013-02-18 20:50:00,36.5,33.0,30.36,SSE,154,0.0,0.0,86,0.00,,,0.01,weatherlink.com 1.10,2013-02-19 01:50:00,
2013-02-18 21:05:00,36.3,33.0,30.36,NW,311,0.0,2.0,86,0.00,,,0.01,weatherlink.com 1.10,2013-02-19 02:05:00,
2013-02-18 21:20:00,36.1,32.0,30.35,NW,309,0.0,1.0,86,0.00,,,0.01,weatherlink.com 1.10,2013-02-19 02:20:00,
2013-02-18 21:35:00,35.7,33.0,30.34,NW,309,0.0,0.0,88,0.00,,,0.01,weatherlink.com 1.10,2013-02-19 02:35:00,
2013-02-18 21:50:00,35.2,32.0,30.33,NW,309,0.0,0.0,88,0.00,,,0.01,weatherlink.com 1.10,2013-02-19 02:50:00,
2013-02-18 22:05:00,34.4,32.0,30.32,NW,309,0.0,0.0,89,0.00,,,0.01,weatherlink.com 1.10,2013-02-19 03:05:00,
2013-02-18 22:20:00,34.2,32.0,30.32,NW,309,0.0,0.0,91,0.00,,,0.01,weatherlink.com 1.10,2013-02-19 03:20:00,
2013-02-18 22:35:00,33.9,32.0,30.31,NW,309,0.0,0.0,91,0.00,,,0.01,weatherlink.com 1.10,2013-02-19 03:35:00,
2013-02-18 22:50:00,33.9,32.0,30.31,NW,309,0.0,1.0,92,0.00,,,0.01,weatherlink.com 1.10,2013-02-19 03:50:00,
2013-02-18 23:05:00,33.5,31.0,30.31,NW,309,0.0,0.0,91,0.00,,,0.01,weatherlink.com 1.10,2013-02-19 04:05:00,
2013-02-18 23:20:00,33.6,32.0,30.31,NW,308,0.0,0.0,92,0.00,,,0.01,weatherlink.com 1.10,2013-02-19 04:20:00,
2013-02-18 23:35:00,33.2,31.0,30.30,NW,309,0.0,0.0,92,0.00,,,0.01,weatherlink.com 1.10,2013-02-19 04:35:00,
2013-02-18 23:50:00,33.3,32.0,30.30,NW,309,0.0,0.0,93,0.00,,,0.01,weatherlink.com 1.10,2013-02-19 04:50:00,